createdAt,value
2022-12-27T00:00:03.854Z,0
2022-12-27T00:00:33.976Z,0
2022-12-27T00:01:06.339Z,0
2022-12-27T00:01:36.306Z,0
2022-12-27T00:01:53.917Z,0
2022-12-27T00:02:26.633Z,0
2022-12-27T00:02:43.207Z,0
2022-12-27T00:03:13.874Z,0
2022-12-27T00:03:36.084Z,0
2022-12-27T00:04:01.883Z,0
2022-12-27T00:04:33.862Z,0
2022-12-27T00:05:06.540Z,0
2022-12-27T00:05:38.672Z,0
2022-12-27T00:06:09.900Z,0
2022-12-27T00:06:35.145Z,0
2022-12-27T00:06:57.865Z,0
2022-12-27T00:07:29.968Z,0
2022-12-27T00:08:01.813Z,0
2022-12-27T00:08:33.820Z,0
2022-12-27T00:09:06.349Z,0
2022-12-27T00:09:35.125Z,0
2022-12-27T00:09:53.864Z,0
2022-12-27T00:10:26.140Z,0
2022-12-27T00:10:43.033Z,0
2022-12-27T00:11:13.846Z,0
2022-12-27T00:11:36.057Z,0
2022-12-27T00:12:02.685Z,0
2022-12-27T00:12:33.889Z,0
2022-12-27T00:13:06.351Z,0
2022-12-27T00:13:37.840Z,0
2022-12-27T00:14:09.915Z,0
2022-12-27T00:14:36.128Z,0
2022-12-27T00:14:57.822Z,0
2022-12-27T00:15:30.484Z,0
2022-12-27T00:16:03.199Z,0
2022-12-27T00:16:34.155Z,0
2022-12-27T00:17:06.254Z,0
2022-12-27T00:17:35.133Z,0
2022-12-27T00:17:53.845Z,0
2022-12-27T00:18:26.557Z,0
2022-12-27T00:18:43.069Z,0
2022-12-27T00:19:13.796Z,0
2022-12-27T00:19:36.068Z,0
2022-12-27T00:20:10.668Z,0
2022-12-27T00:20:33.866Z,0
2022-12-27T00:21:06.333Z,0
2022-12-27T00:21:35.146Z,0
2022-12-27T00:21:53.820Z,0
2022-12-27T00:22:25.843Z,0
2022-12-27T00:22:42.968Z,0
2022-12-27T00:23:16.559Z,0
2022-12-27T00:23:36.069Z,0
2022-12-27T00:24:01.826Z,0
2022-12-27T00:24:33.835Z,0
2022-12-27T00:25:06.604Z,0
2022-12-27T00:25:37.869Z,0
2022-12-27T00:26:09.925Z,0
2022-12-27T00:26:35.117Z,0
2022-12-27T00:26:58.070Z,0
2022-12-27T00:27:29.900Z,0
2022-12-27T00:28:01.863Z,0
2022-12-27T00:28:33.834Z,0
2022-12-27T00:29:06.381Z,0
2022-12-27T00:29:38.556Z,0
2022-12-27T00:30:11.977Z,0
2022-12-27T00:30:35.185Z,0
2022-12-27T00:30:58.108Z,0
2022-12-27T00:31:29.950Z,0
2022-12-27T00:32:01.907Z,0
2022-12-27T00:32:33.830Z,0
2022-12-27T00:33:06.283Z,0
2022-12-27T00:33:35.224Z,0
2022-12-27T00:33:53.876Z,0
2022-12-27T00:34:25.880Z,0
2022-12-27T00:34:43.471Z,0
2022-12-27T00:35:14.125Z,0
2022-12-27T00:35:36.100Z,0
2022-12-27T00:36:02.705Z,0
2022-12-27T00:36:34.492Z,0
2022-12-27T00:37:06.326Z,0
2022-12-27T00:37:37.872Z,0
2022-12-27T00:38:09.984Z,0
2022-12-27T00:38:35.129Z,0
2022-12-27T00:39:03.359Z,0
2022-12-27T00:39:29.934Z,0
2022-12-27T00:40:03.465Z,0
2022-12-27T00:40:34.728Z,0
2022-12-27T00:41:06.281Z,0
2022-12-27T00:41:37.841Z,0
2022-12-27T00:42:09.962Z,0
2022-12-27T00:42:35.148Z,0
2022-12-27T00:42:57.869Z,0
2022-12-27T00:43:29.912Z,0
2022-12-27T00:44:01.876Z,0
2022-12-27T00:44:33.868Z,0
2022-12-27T00:45:06.888Z,0
2022-12-27T00:45:36.599Z,0
2022-12-27T00:45:54.370Z,0
2022-12-27T00:46:25.857Z,0
2022-12-27T00:46:42.970Z,0
2022-12-27T00:47:13.821Z,0
2022-12-27T00:47:36.296Z,0
2022-12-27T00:48:08.033Z,0
2022-12-27T00:48:33.831Z,0
2022-12-27T00:49:06.268Z,0
2022-12-27T00:49:35.130Z,0
2022-12-27T00:49:53.857Z,0
2022-12-27T00:50:26.158Z,0
2022-12-27T00:50:43.198Z,0
2022-12-27T00:51:13.833Z,0
2022-12-27T00:51:36.276Z,0
2022-12-27T00:52:02.694Z,0
2022-12-27T00:52:33.886Z,0
2022-12-27T00:53:06.271Z,0
2022-12-27T00:53:37.860Z,0
2022-12-27T00:54:09.857Z,0
2022-12-27T00:54:35.127Z,0
2022-12-27T00:54:57.857Z,0
2022-12-27T00:55:30.152Z,0
2022-12-27T00:56:01.809Z,0
2022-12-27T00:56:34.029Z,0
2022-12-27T00:57:06.345Z,0
2022-12-27T00:57:35.123Z,0
2022-12-27T00:57:53.918Z,0
2022-12-27T00:58:26.512Z,0
2022-12-27T00:58:43.263Z,0
2022-12-27T00:59:13.820Z,0
2022-12-27T00:59:35.652Z,0
2022-12-27T01:00:09.912Z,0
2022-12-27T01:00:33.875Z,0
2022-12-27T01:01:06.321Z,0
2022-12-27T01:01:36.540Z,0
2022-12-27T01:01:54.049Z,0
2022-12-27T01:02:25.850Z,0
2022-12-27T01:02:42.996Z,0
2022-12-27T01:03:13.860Z,0
2022-12-27T01:03:35.685Z,0
2022-12-27T01:04:01.872Z,0
2022-12-27T01:04:33.864Z,0
2022-12-27T01:05:06.668Z,0
2022-12-27T01:05:36.330Z,0
2022-12-27T01:05:54.128Z,0
2022-12-27T01:06:25.909Z,0
2022-12-27T01:06:43.014Z,0
2022-12-27T01:07:13.880Z,0
2022-12-27T01:07:36.274Z,0
2022-12-27T01:08:02.578Z,0
2022-12-27T01:08:33.877Z,0
2022-12-27T01:09:06.259Z,0
2022-12-27T01:09:37.893Z,0
2022-12-27T01:10:10.228Z,0
2022-12-27T01:10:35.137Z,0
2022-12-27T01:10:58.124Z,0
2022-12-27T01:11:29.891Z,0
2022-12-27T01:12:01.859Z,0
2022-12-27T01:12:33.861Z,0
2022-12-27T01:13:06.351Z,0
2022-12-27T01:13:35.117Z,0
2022-12-27T01:13:53.917Z,0
2022-12-27T01:14:27.622Z,0
2022-12-27T01:14:57.895Z,0
2022-12-27T01:15:30.441Z,0
2022-12-27T01:16:03.159Z,0
2022-12-27T01:16:34.025Z,0
2022-12-27T01:17:06.377Z,0
2022-12-27T01:17:36.393Z,0
2022-12-27T01:17:53.876Z,0
2022-12-27T01:18:25.887Z,0
2022-12-27T01:18:42.986Z,0
2022-12-27T01:19:13.904Z,0
2022-12-27T01:19:35.660Z,0
2022-12-27T01:20:03.430Z,0
2022-12-27T01:20:33.850Z,0
2022-12-27T01:21:06.328Z,0
2022-12-27T01:21:35.575Z,0
2022-12-27T01:21:53.892Z,0
2022-12-27T01:22:25.864Z,0
2022-12-27T01:22:43.003Z,0
2022-12-27T01:23:13.841Z,0
2022-12-27T01:23:36.646Z,0
2022-12-27T01:24:02.547Z,0
2022-12-27T01:24:33.884Z,0
2022-12-27T01:25:06.671Z,0
2022-12-27T01:25:35.132Z,0
2022-12-27T01:25:54.115Z,0
2022-12-27T01:26:25.893Z,0
2022-12-27T01:26:43.007Z,0
2022-12-27T01:27:14.612Z,0
2022-12-27T01:27:35.635Z,0
2022-12-27T01:28:01.845Z,0
2022-12-27T01:28:33.853Z,0
2022-12-27T01:29:06.320Z,0
2022-12-27T01:29:35.567Z,0
2022-12-27T01:29:53.887Z,0
2022-12-27T01:30:27.308Z,0
2022-12-27T01:30:43.291Z,0
2022-12-27T01:31:13.979Z,0
2022-12-27T01:31:35.749Z,0
2022-12-27T01:32:01.961Z,0
2022-12-27T01:32:33.859Z,0
2022-12-27T01:33:06.290Z,0
2022-12-27T01:33:36.322Z,0
2022-12-27T01:33:53.824Z,0
2022-12-27T01:34:25.899Z,0
2022-12-27T01:34:42.984Z,0
2022-12-27T01:35:14.185Z,0
2022-12-27T01:35:35.643Z,0
2022-12-27T01:36:01.857Z,0
2022-12-27T01:36:33.879Z,0
2022-12-27T01:37:06.272Z,0
2022-12-27T01:37:35.135Z,0
2022-12-27T01:37:53.908Z,0
2022-12-27T01:38:25.917Z,0
2022-12-27T01:38:43.019Z,0
2022-12-27T01:39:13.852Z,.16
2022-12-27T01:39:35.651Z,.16
2022-12-27T01:40:03.514Z,0
2022-12-27T01:40:34.227Z,0
2022-12-27T01:41:06.727Z,0
2022-12-27T01:41:38.283Z,0
2022-12-27T01:42:09.942Z,0
2022-12-27T01:42:36.433Z,0
2022-12-27T01:42:58.076Z,0
2022-12-27T01:43:30.112Z,0
2022-12-27T01:44:01.931Z,0
2022-12-27T01:44:33.865Z,0
2022-12-27T01:45:07.475Z,0
2022-12-27T01:45:35.384Z,0
2022-12-27T01:45:54.556Z,0
2022-12-27T01:46:26.879Z,0
2022-12-27T01:46:43.300Z,0
2022-12-27T01:47:14.021Z,0
2022-12-27T01:47:36.650Z,0
2022-12-27T01:48:02.030Z,0
2022-12-27T01:48:34.071Z,0
2022-12-27T01:49:06.454Z,0
2022-12-27T01:49:36.612Z,0
2022-12-27T01:49:53.996Z,0
2022-12-27T01:50:26.160Z,0
2022-12-27T01:50:43.229Z,0
2022-12-27T01:51:14.094Z,0
2022-12-27T01:51:36.547Z,0
2022-12-27T01:52:02.241Z,0
2022-12-27T01:52:35.184Z,0
2022-12-27T01:53:06.483Z,0
2022-12-27T01:53:35.220Z,0
2022-12-27T01:53:53.938Z,0
2022-12-27T01:54:25.986Z,0
2022-12-27T01:54:43.359Z,0
2022-12-27T01:55:14.221Z,0
2022-12-27T01:55:35.701Z,0
2022-12-27T01:56:02.827Z,0
2022-12-27T01:56:33.910Z,0
2022-12-27T01:57:06.411Z,0
2022-12-27T01:57:35.162Z,0
2022-12-27T01:57:53.908Z,0
2022-12-27T01:58:25.915Z,0
2022-12-27T01:58:43.058Z,0
2022-12-27T01:59:14.897Z,0
2022-12-27T01:59:35.718Z,0
2022-12-27T02:00:04.155Z,0
2022-12-27T02:00:33.973Z,0
2022-12-27T02:01:06.458Z,0
2022-12-27T02:01:35.436Z,0
2022-12-27T02:01:54.036Z,0
2022-12-27T02:02:26.866Z,0
2022-12-27T02:02:43.338Z,0
2022-12-27T02:03:13.968Z,0
2022-12-27T02:03:35.674Z,0
2022-12-27T02:04:01.929Z,0
2022-12-27T02:04:33.931Z,0
2022-12-27T02:05:06.723Z,0
2022-12-27T02:05:36.477Z,0
2022-12-27T02:05:54.149Z,0
2022-12-27T02:06:25.951Z,0
2022-12-27T02:06:43.157Z,.16
2022-12-27T02:07:13.933Z,.16
2022-12-27T02:07:35.726Z,.16
2022-12-27T02:08:01.920Z,.16
2022-12-27T02:08:33.938Z,.16
2022-12-27T02:09:06.373Z,0
2022-12-27T02:09:35.159Z,.16
2022-12-27T02:09:53.966Z,.32
2022-12-27T02:10:26.220Z,.32
2022-12-27T02:10:43.072Z,.32
2022-12-27T02:11:13.909Z,.32
2022-12-27T02:11:35.664Z,.32
2022-12-27T02:12:02.786Z,.32
2022-12-27T02:12:33.927Z,.32
2022-12-27T02:13:06.464Z,.32
2022-12-27T02:13:35.154Z,.32
2022-12-27T02:13:53.902Z,.32
2022-12-27T02:14:28.122Z,.32
2022-12-27T02:14:43.094Z,.32
2022-12-27T02:15:15.365Z,.32
2022-12-27T02:15:35.743Z,.32
2022-12-27T02:16:03.523Z,.32
2022-12-27T02:16:34.737Z,.32
2022-12-27T02:17:06.373Z,.32
2022-12-27T02:17:35.679Z,.32
2022-12-27T02:17:53.936Z,.32
2022-12-27T02:18:26.740Z,.32
2022-12-27T02:18:57.954Z,.32
2022-12-27T02:19:29.953Z,.32
2022-12-27T02:20:03.425Z,.32
2022-12-27T02:20:34.099Z,.32
2022-12-27T02:21:06.466Z,.32
2022-12-27T02:21:36.634Z,.32
2022-12-27T02:21:53.918Z,.32
2022-12-27T02:22:25.898Z,.32
2022-12-27T02:22:43.044Z,.32
2022-12-27T02:23:13.979Z,.32
2022-12-27T02:23:39.642Z,.32
2022-12-27T02:24:01.887Z,.16
2022-12-27T02:24:33.928Z,.16
2022-12-27T02:25:06.693Z,.16
2022-12-27T02:25:35.166Z,0
2022-12-27T02:25:54.219Z,0
2022-12-27T02:26:25.958Z,0
2022-12-27T02:26:43.092Z,0
2022-12-27T02:27:13.896Z,0
2022-12-27T02:27:35.658Z,0
2022-12-27T02:28:02.815Z,0
2022-12-27T02:28:33.941Z,0
2022-12-27T02:29:06.360Z,0
2022-12-27T02:29:35.881Z,0
2022-12-27T02:29:53.901Z,0
2022-12-27T02:30:26.490Z,0
2022-12-27T02:30:43.128Z,0
2022-12-27T02:31:14.747Z,0
2022-12-27T02:31:36.403Z,0
2022-12-27T02:32:01.901Z,0
2022-12-27T02:32:33.913Z,0
2022-12-27T02:33:05.941Z,0
2022-12-27T02:33:35.282Z,0
2022-12-27T02:33:53.923Z,0
2022-12-27T02:34:26.724Z,0
2022-12-27T02:34:43.245Z,0
2022-12-27T02:35:16.557Z,0
2022-12-27T02:35:35.679Z,0
2022-12-27T02:36:01.931Z,0
2022-12-27T02:36:34.182Z,0
2022-12-27T02:37:06.316Z,0
2022-12-27T02:37:36.611Z,.16
2022-12-27T02:37:53.872Z,.16
2022-12-27T02:38:25.882Z,.16
2022-12-27T02:38:43.007Z,.48
2022-12-27T02:39:13.886Z,.16
2022-12-27T02:39:35.600Z,.16
2022-12-27T02:40:03.492Z,.16
2022-12-27T02:40:33.891Z,.48
2022-12-27T02:41:05.943Z,.64
2022-12-27T02:41:35.602Z,.64
2022-12-27T02:41:53.911Z,.64
2022-12-27T02:42:25.910Z,.64
2022-12-27T02:42:43.061Z,.64
2022-12-27T02:43:13.858Z,.64
2022-12-27T02:43:35.615Z,.64
2022-12-27T02:44:02.818Z,.64
2022-12-27T02:44:33.938Z,.64
2022-12-27T02:45:06.980Z,.64
2022-12-27T02:45:35.201Z,.64
2022-12-27T02:45:54.205Z,.48
2022-12-27T02:46:26.191Z,.32
2022-12-27T02:46:43.093Z,.32
2022-12-27T02:47:14.687Z,.16
2022-12-27T02:47:35.620Z,0
2022-12-27T02:48:01.900Z,.16
2022-12-27T02:48:33.877Z,.16
2022-12-27T02:49:05.938Z,.16
2022-12-27T02:49:35.172Z,.16
2022-12-27T02:49:53.900Z,.16
2022-12-27T02:50:26.990Z,.16
2022-12-27T02:50:57.932Z,.16
2022-12-27T02:51:29.980Z,.32
2022-12-27T02:52:01.902Z,.32
2022-12-27T02:52:33.910Z,.32
2022-12-27T02:53:05.963Z,.32
2022-12-27T02:53:39.028Z,.32
2022-12-27T02:54:09.916Z,.32
2022-12-27T02:54:35.129Z,.32
2022-12-27T02:54:57.888Z,.32
2022-12-27T02:55:31.205Z,.32
2022-12-27T02:56:02.125Z,.32
2022-12-27T02:56:33.904Z,.32
2022-12-27T02:57:05.938Z,.32
2022-12-27T02:57:35.129Z,.32
2022-12-27T02:57:53.885Z,.32
2022-12-27T02:58:25.938Z,.32
2022-12-27T02:58:43.058Z,.32
2022-12-27T02:59:13.895Z,.16
2022-12-27T02:59:35.627Z,0
2022-12-27T03:00:03.960Z,0
2022-12-27T03:00:33.966Z,0
2022-12-27T03:01:06.481Z,0
2022-12-27T03:01:35.286Z,0
2022-12-27T03:01:54.039Z,0
2022-12-27T03:02:26.093Z,0
2022-12-27T03:02:43.170Z,0
2022-12-27T03:03:15.773Z,0
2022-12-27T03:03:39.647Z,0
2022-12-27T03:04:01.889Z,0
2022-12-27T03:04:34.389Z,0
2022-12-27T03:05:06.404Z,0
2022-12-27T03:05:35.173Z,0
2022-12-27T03:05:54.161Z,0
2022-12-27T03:06:26.613Z,0
2022-12-27T03:06:43.148Z,0
2022-12-27T03:07:13.886Z,0
2022-12-27T03:07:35.613Z,0
2022-12-27T03:08:01.920Z,0
2022-12-27T03:08:33.886Z,0
2022-12-27T03:09:05.955Z,0
2022-12-27T03:09:35.837Z,0
2022-12-27T03:09:53.886Z,0
2022-12-27T03:10:26.252Z,0
2022-12-27T03:10:43.027Z,0
2022-12-27T03:11:13.924Z,0
2022-12-27T03:11:35.595Z,0
2022-12-27T03:12:01.887Z,0
2022-12-27T03:12:34.192Z,0
2022-12-27T03:13:05.915Z,0
2022-12-27T03:13:35.152Z,0
2022-12-27T03:13:53.925Z,0
2022-12-27T03:14:25.889Z,0
2022-12-27T03:14:43.034Z,0
2022-12-27T03:15:14.487Z,0
2022-12-27T03:15:35.659Z,0
2022-12-27T03:16:03.152Z,0
2022-12-27T03:16:33.939Z,0
2022-12-27T03:17:05.927Z,0
2022-12-27T03:17:35.132Z,0
2022-12-27T03:17:53.874Z,0
2022-12-27T03:18:25.961Z,0
2022-12-27T03:18:43.065Z,0
2022-12-27T03:19:14.736Z,0
2022-12-27T03:19:35.633Z,0
2022-12-27T03:20:03.487Z,0
2022-12-27T03:20:33.917Z,0
2022-12-27T03:21:05.903Z,0
2022-12-27T03:21:35.155Z,0
2022-12-27T03:21:53.936Z,0
2022-12-27T03:22:26.658Z,0
2022-12-27T03:22:43.165Z,0
2022-12-27T03:23:13.891Z,0
2022-12-27T03:23:35.686Z,0
2022-12-27T03:24:01.950Z,0
2022-12-27T03:24:34.140Z,0
2022-12-27T03:25:06.593Z,0
2022-12-27T03:25:36.053Z,0
2022-12-27T03:25:54.168Z,0
2022-12-27T03:26:25.922Z,0
2022-12-27T03:26:43.049Z,0
2022-12-27T03:27:13.913Z,0
2022-12-27T03:27:35.597Z,0
2022-12-27T03:28:01.888Z,0
2022-12-27T03:28:34.505Z,0
2022-12-27T03:29:07.517Z,0
2022-12-27T03:29:35.097Z,0
2022-12-27T03:29:53.899Z,0
2022-12-27T03:30:26.539Z,0
2022-12-27T03:30:43.131Z,.16
2022-12-27T03:31:13.909Z,.16
2022-12-27T03:31:35.605Z,.16
2022-12-27T03:32:01.928Z,.16
2022-12-27T03:32:34.956Z,.16
2022-12-27T03:33:05.970Z,.32
2022-12-27T03:33:35.178Z,.32
2022-12-27T03:33:53.911Z,.32
2022-12-27T03:34:25.902Z,.32
2022-12-27T03:34:54.882Z,.16
2022-12-27T03:35:14.306Z,0
2022-12-27T03:35:36.868Z,0
2022-12-27T03:36:01.895Z,0
2022-12-27T03:36:33.886Z,0
2022-12-27T03:37:05.948Z,0
2022-12-27T03:37:35.095Z,.16
2022-12-27T03:37:53.925Z,.16
2022-12-27T03:38:25.913Z,.16
2022-12-27T03:38:43.935Z,0
2022-12-27T03:39:13.917Z,0
2022-12-27T03:39:35.616Z,0
2022-12-27T03:40:03.601Z,0
2022-12-27T03:40:33.916Z,0
2022-12-27T03:41:05.963Z,0
2022-12-27T03:41:35.090Z,0
2022-12-27T03:41:54.717Z,0
2022-12-27T03:42:25.914Z,0
2022-12-27T03:42:43.044Z,0
2022-12-27T03:43:13.982Z,0
2022-12-27T03:43:35.589Z,0
2022-12-27T03:44:01.892Z,0
2022-12-27T03:44:34.299Z,0
2022-12-27T03:45:07.812Z,0
2022-12-27T03:45:35.135Z,.16
2022-12-27T03:45:54.392Z,.16
2022-12-27T03:46:26.121Z,0
2022-12-27T03:46:43.086Z,.16
2022-12-27T03:47:13.906Z,.16
2022-12-27T03:47:35.624Z,.16
2022-12-27T03:48:01.935Z,0
2022-12-27T03:48:33.921Z,0
2022-12-27T03:49:05.931Z,0
2022-12-27T03:49:35.136Z,0
2022-12-27T03:49:53.891Z,0
2022-12-27T03:50:26.179Z,0
2022-12-27T03:50:43.025Z,0
2022-12-27T03:51:14.113Z,0
2022-12-27T03:51:35.638Z,0
2022-12-27T03:52:01.911Z,0
2022-12-27T03:52:33.911Z,0
2022-12-27T03:53:05.933Z,0
2022-12-27T03:53:35.113Z,0
2022-12-27T03:53:53.949Z,0
2022-12-27T03:54:25.976Z,0
2022-12-27T03:54:43.559Z,0
2022-12-27T03:55:14.278Z,0
2022-12-27T03:55:35.610Z,0
2022-12-27T03:56:01.929Z,0
2022-12-27T03:56:33.920Z,0
2022-12-27T03:57:05.978Z,0
2022-12-27T03:57:35.092Z,0
2022-12-27T03:57:54.708Z,0
2022-12-27T03:58:25.922Z,0
2022-12-27T03:58:43.080Z,0
2022-12-27T03:59:13.924Z,0
2022-12-27T03:59:35.599Z,0
2022-12-27T04:00:03.836Z,0
2022-12-27T04:00:33.943Z,0
2022-12-27T04:01:07.215Z,0
2022-12-27T04:01:35.261Z,0
2022-12-27T04:01:54.009Z,0
2022-12-27T04:02:26.262Z,0
2022-12-27T04:02:43.327Z,0
2022-12-27T04:03:13.970Z,0
2022-12-27T04:03:35.592Z,0
2022-12-27T04:04:01.968Z,0
2022-12-27T04:04:33.930Z,0
2022-12-27T04:05:06.688Z,0
2022-12-27T04:05:35.402Z,0
2022-12-27T04:05:54.227Z,0
2022-12-27T04:06:25.920Z,0
2022-12-27T04:06:43.049Z,0
2022-12-27T04:07:13.940Z,0
2022-12-27T04:07:35.623Z,0
2022-12-27T04:08:01.921Z,0
2022-12-27T04:08:34.712Z,0
2022-12-27T04:09:05.973Z,0
2022-12-27T04:09:35.189Z,0
2022-12-27T04:09:53.961Z,0
2022-12-27T04:10:26.207Z,0
2022-12-27T04:10:43.643Z,0
2022-12-27T04:11:13.907Z,0
2022-12-27T04:11:35.600Z,0
2022-12-27T04:12:01.954Z,.16
2022-12-27T04:12:33.923Z,.48
2022-12-27T04:13:05.942Z,.64
2022-12-27T04:13:35.096Z,.64
2022-12-27T04:13:54.735Z,.64
2022-12-27T04:14:25.960Z,.88
2022-12-27T04:14:43.062Z,.88
2022-12-27T04:15:14.599Z,.88
2022-12-27T04:15:35.629Z,.88
2022-12-27T04:16:03.371Z,.88
2022-12-27T04:16:33.924Z,.64
2022-12-27T04:17:07.227Z,.64
2022-12-27T04:17:35.102Z,.64
2022-12-27T04:17:53.969Z,.64
2022-12-27T04:18:25.953Z,.64
2022-12-27T04:18:43.899Z,.64
2022-12-27T04:19:14.037Z,.48
2022-12-27T04:19:35.899Z,.32
2022-12-27T04:20:03.337Z,.16
2022-12-27T04:20:33.974Z,0
2022-12-27T04:21:05.920Z,0
2022-12-27T04:21:35.088Z,0
2022-12-27T04:21:53.920Z,0
2022-12-27T04:22:25.906Z,0
2022-12-27T04:22:43.095Z,0
2022-12-27T04:23:14.756Z,0
2022-12-27T04:23:35.702Z,0
2022-12-27T04:24:01.912Z,0
2022-12-27T04:24:33.903Z,0
2022-12-27T04:25:06.566Z,0
2022-12-27T04:25:35.069Z,0
2022-12-27T04:25:54.178Z,0
2022-12-27T04:26:26.786Z,0
2022-12-27T04:26:58.023Z,0
2022-12-27T04:27:29.976Z,0
2022-12-27T04:28:01.937Z,0
2022-12-27T04:28:34.162Z,0
2022-12-27T04:29:05.991Z,0
2022-12-27T04:29:37.002Z,0
2022-12-27T04:29:53.920Z,0
2022-12-27T04:30:26.479Z,0
2022-12-27T04:30:43.197Z,0
2022-12-27T04:31:14.033Z,0
2022-12-27T04:31:35.604Z,.16
2022-12-27T04:32:01.951Z,.32
2022-12-27T04:32:33.957Z,.32
2022-12-27T04:33:05.926Z,.32
2022-12-27T04:33:35.213Z,.32
2022-12-27T04:33:53.941Z,.32
2022-12-27T04:34:25.975Z,.32
2022-12-27T04:34:43.082Z,.32
2022-12-27T04:35:14.257Z,.16
2022-12-27T04:35:35.602Z,0
2022-12-27T04:36:06.534Z,0
2022-12-27T04:36:33.981Z,0
2022-12-27T04:37:05.980Z,0
2022-12-27T04:37:35.089Z,0
2022-12-27T04:37:53.927Z,0
2022-12-27T04:38:25.936Z,0
2022-12-27T04:38:43.100Z,0
2022-12-27T04:39:14.723Z,0
2022-12-27T04:39:35.581Z,0
2022-12-27T04:40:03.416Z,0
2022-12-27T04:40:34.244Z,0
2022-12-27T04:41:05.958Z,0
2022-12-27T04:41:35.108Z,0
2022-12-27T04:41:53.960Z,0
2022-12-27T04:42:26.889Z,0
2022-12-27T04:42:57.991Z,0
2022-12-27T04:43:30.071Z,0
2022-12-27T04:44:01.953Z,0
2022-12-27T04:44:33.920Z,0
2022-12-27T04:45:11.796Z,0
2022-12-27T04:45:36.197Z,0
2022-12-27T04:45:54.246Z,0
2022-12-27T04:46:25.996Z,0
2022-12-27T04:46:43.111Z,0
2022-12-27T04:47:13.959Z,0
2022-12-27T04:47:35.595Z,0
2022-12-27T04:48:01.939Z,.16
2022-12-27T04:48:33.983Z,.32
2022-12-27T04:49:05.953Z,.32
2022-12-27T04:49:35.380Z,.32
2022-12-27T04:49:53.966Z,.32
2022-12-27T04:50:26.262Z,.32
2022-12-27T04:50:43.103Z,.16
2022-12-27T04:51:13.952Z,.16
2022-12-27T04:51:35.584Z,.32
2022-12-27T04:52:02.818Z,.32
2022-12-27T04:52:34.284Z,.48
2022-12-27T04:53:05.935Z,.64
2022-12-27T04:53:35.096Z,.48
2022-12-27T04:53:53.949Z,.48
2022-12-27T04:54:25.932Z,.48
2022-12-27T04:54:43.126Z,.88
2022-12-27T04:55:15.039Z,.88
2022-12-27T04:55:35.611Z,1.12
2022-12-27T04:56:01.960Z,1.12
2022-12-27T04:56:33.948Z,1.12
2022-12-27T04:57:05.934Z,1.12
2022-12-27T04:57:35.488Z,1.12
2022-12-27T04:57:53.960Z,1.12
2022-12-27T04:58:26.681Z,1.12
2022-12-27T04:58:57.975Z,1.12
2022-12-27T04:59:30.026Z,1.28
2022-12-27T05:00:03.913Z,1.44
2022-12-27T05:00:34.006Z,1.61
2022-12-27T05:01:12.211Z,1.28
2022-12-27T05:01:36.090Z,1.61
2022-12-27T05:01:54.032Z,1.28
2022-12-27T05:02:25.501Z,1.61
2022-12-27T05:02:42.746Z,1.77
2022-12-27T05:03:13.672Z,1.77
2022-12-27T05:03:35.131Z,1.77
2022-12-27T05:04:01.462Z,1.77
2022-12-27T05:04:33.425Z,1.93
2022-12-27T05:05:05.897Z,1.77
2022-12-27T05:05:34.603Z,1.77
2022-12-27T05:05:53.700Z,1.77
2022-12-27T05:06:26.589Z,1.77
2022-12-27T05:06:43.122Z,1.61
2022-12-27T05:07:14.949Z,1.44
2022-12-27T05:07:35.721Z,1.44
2022-12-27T05:08:03.450Z,1.44
2022-12-27T05:08:34.892Z,1.44
2022-12-27T05:09:05.968Z,1.61
2022-12-27T05:09:35.170Z,1.61
2022-12-27T05:09:54.004Z,1.61
2022-12-27T05:10:26.321Z,1.61
2022-12-27T05:10:43.090Z,1.77
2022-12-27T05:11:14.908Z,2.17
2022-12-27T05:11:35.628Z,2.17
2022-12-27T05:12:01.978Z,1.61
2022-12-27T05:12:35.006Z,1.45
2022-12-27T05:13:05.965Z,2.17
2022-12-27T05:13:35.413Z,2.17
2022-12-27T05:13:53.977Z,2.73
2022-12-27T05:14:29.564Z,2.89
2022-12-27T05:14:58.003Z,2.89
2022-12-27T05:15:30.556Z,3.05
2022-12-27T05:16:03.346Z,3.05
2022-12-27T05:16:34.298Z,3.05
2022-12-27T05:17:05.994Z,3.21
2022-12-27T05:17:36.912Z,3.21
2022-12-27T05:17:53.952Z,3.38
2022-12-27T05:18:25.967Z,3.21
2022-12-27T05:18:43.710Z,3.21
2022-12-27T05:19:13.966Z,3.21
2022-12-27T05:19:35.597Z,3.05
2022-12-27T05:20:03.571Z,3.05
2022-12-27T05:20:35.166Z,3.05
2022-12-27T05:21:05.935Z,3.21
2022-12-27T05:21:35.799Z,3.21
2022-12-27T05:21:53.994Z,3.21
2022-12-27T05:22:25.959Z,3.05
2022-12-27T05:22:43.135Z,3.05
2022-12-27T05:23:13.959Z,2.89
2022-12-27T05:23:35.683Z,2.49
2022-12-27T05:24:05.830Z,2.89
2022-12-27T05:24:34.425Z,2.49
2022-12-27T05:25:06.269Z,2.49
2022-12-27T05:25:35.248Z,2.49
2022-12-27T05:25:54.205Z,2.09
2022-12-27T05:26:25.946Z,2.09
2022-12-27T05:26:43.121Z,1.93
2022-12-27T05:27:14.772Z,2.09
2022-12-27T05:27:35.849Z,2.49
2022-12-27T05:28:01.972Z,2.89
2022-12-27T05:28:33.972Z,2.89
2022-12-27T05:29:05.956Z,2.89
2022-12-27T05:29:35.903Z,2.89
2022-12-27T05:29:53.959Z,2.49
2022-12-27T05:30:27.260Z,2.49
2022-12-27T05:30:58.091Z,2.49
2022-12-27T05:31:30.103Z,2.09
2022-12-27T05:32:01.993Z,2.09
2022-12-27T05:32:34.449Z,2.09
2022-12-27T05:33:05.996Z,2.09
2022-12-27T05:33:36.585Z,2.09
2022-12-27T05:33:53.969Z,2.09
2022-12-27T05:34:25.949Z,2.49
2022-12-27T05:34:43.130Z,2.49
2022-12-27T05:35:14.243Z,2.89
2022-12-27T05:35:35.639Z,3.05
2022-12-27T05:36:02.001Z,3.05
2022-12-27T05:36:34.029Z,2.89
2022-12-27T05:37:05.962Z,2.73
2022-12-27T05:37:35.270Z,2.33
2022-12-27T05:37:55.178Z,2.09
2022-12-27T05:38:25.998Z,2.09
2022-12-27T05:38:43.154Z,2.09
2022-12-27T05:39:14.004Z,2.33
2022-12-27T05:39:35.634Z,2.33
2022-12-27T05:40:03.686Z,2.33
2022-12-27T05:40:34.422Z,2.73
2022-12-27T05:41:05.964Z,2.33
2022-12-27T05:41:35.227Z,2.73
2022-12-27T05:41:53.946Z,2.33
2022-12-27T05:42:25.975Z,2.73
2022-12-27T05:42:43.099Z,2.33
2022-12-27T05:43:14.687Z,2.09
2022-12-27T05:43:35.653Z,2.09
2022-12-27T05:44:06.757Z,2.09
2022-12-27T05:44:33.981Z,1.93
2022-12-27T05:45:06.527Z,1.77
2022-12-27T05:45:35.293Z,1.77
2022-12-27T05:45:54.296Z,1.77
2022-12-27T05:46:26.791Z,1.77
2022-12-27T05:46:58.105Z,1.93
2022-12-27T05:47:30.011Z,2.09
2022-12-27T05:48:02.009Z,1.93
2022-12-27T05:48:36.260Z,1.77
2022-12-27T05:49:05.973Z,1.61
2022-12-27T05:49:35.892Z,1.44
2022-12-27T05:49:53.948Z,1.44
2022-12-27T05:50:26.251Z,1.44
2022-12-27T05:50:43.192Z,1.28
2022-12-27T05:51:13.984Z,1.12
2022-12-27T05:51:35.683Z,1.12
2022-12-27T05:52:01.988Z,1.12
2022-12-27T05:52:40.642Z,1.12
2022-12-27T05:53:05.963Z,1.12
2022-12-27T05:53:35.275Z,1.12
2022-12-27T05:53:53.997Z,1.12
2022-12-27T05:54:26.015Z,1.12
2022-12-27T05:54:43.186Z,.88
2022-12-27T05:55:14.252Z,.88
2022-12-27T05:55:35.576Z,.64
2022-12-27T05:56:03.610Z,.64
2022-12-27T05:56:34.067Z,.64
2022-12-27T05:57:05.969Z,.64
2022-12-27T05:57:35.291Z,.64
2022-12-27T05:57:53.981Z,.88
2022-12-27T05:58:26.012Z,.88
2022-12-27T05:58:43.087Z,.88
2022-12-27T05:59:14.930Z,.64
2022-12-27T05:59:35.597Z,.64
2022-12-27T06:00:03.758Z,.88
2022-12-27T06:00:34.006Z,1.12
2022-12-27T06:01:06.027Z,.88
2022-12-27T06:01:35.394Z,.88
2022-12-27T06:01:54.233Z,1.12
2022-12-27T06:02:27.022Z,1.12
2022-12-27T06:02:58.206Z,1.12
2022-12-27T06:03:30.019Z,1.12
2022-12-27T06:04:02.012Z,1.12
2022-12-27T06:04:34.886Z,1.12
2022-12-27T06:05:06.337Z,1.28
2022-12-27T06:05:36.172Z,1.77
2022-12-27T06:05:54.221Z,1.28
2022-12-27T06:06:25.957Z,1.28
2022-12-27T06:06:43.105Z,1.12
2022-12-27T06:07:14.000Z,1.12
2022-12-27T06:07:35.670Z,1.12
2022-12-27T06:08:02.033Z,.72
2022-12-27T06:08:34.017Z,.72
2022-12-27T06:09:05.998Z,1.12
2022-12-27T06:09:35.279Z,1.12
2022-12-27T06:09:53.997Z,.72
2022-12-27T06:10:26.281Z,.72
2022-12-27T06:10:58.189Z,.32
2022-12-27T06:11:29.989Z,.32
2022-12-27T06:12:02.682Z,.32
2022-12-27T06:12:34.060Z,.32
2022-12-27T06:13:06.016Z,.32
2022-12-27T06:13:35.270Z,.32
2022-12-27T06:13:54.131Z,.32
2022-12-27T06:14:26.002Z,.32
2022-12-27T06:14:43.080Z,.32
2022-12-27T06:15:15.344Z,.16
2022-12-27T06:15:35.666Z,.16
2022-12-27T06:16:03.183Z,.32
2022-12-27T06:16:34.150Z,.32
2022-12-27T06:17:05.975Z,.16
2022-12-27T06:17:35.345Z,.16
2022-12-27T06:17:54.029Z,.16
2022-12-27T06:18:26.687Z,0
2022-12-27T06:18:58.020Z,0
2022-12-27T06:19:29.987Z,0
2022-12-27T06:20:03.501Z,0
2022-12-27T06:20:34.021Z,0
2022-12-27T06:21:06.007Z,0
2022-12-27T06:21:35.859Z,0
2022-12-27T06:21:54.062Z,0
2022-12-27T06:22:25.989Z,0
2022-12-27T06:22:43.130Z,0
2022-12-27T06:23:13.992Z,0
2022-12-27T06:23:35.595Z,0
2022-12-27T06:24:01.996Z,0
2022-12-27T06:24:34.029Z,0
2022-12-27T06:25:09.691Z,0
2022-12-27T06:25:35.497Z,0
2022-12-27T06:25:54.274Z,0
2022-12-27T06:26:26.018Z,0
2022-12-27T06:26:58.037Z,0
2022-12-27T06:27:30.048Z,0
2022-12-27T06:28:02.805Z,0
2022-12-27T06:28:34.058Z,0
2022-12-27T06:29:05.998Z,0
2022-12-27T06:29:35.354Z,.16
2022-12-27T06:29:53.997Z,.16
2022-12-27T06:30:29.284Z,.16
2022-12-27T06:30:43.161Z,.16